sensor_id;sensor_type;location;lat;lon;timestamp;pressure;altitude;pressure_sealevel;temperature;humidity
66703;BME280;60933;46.398;-63.798;2022-07-29T00:00:55;101058.22;;;24.86;54.51
66703;BME280;60933;46.398;-63.798;2022-07-29T00:03:21;101063.78;;;24.83;54.89
66703;BME280;60933;46.398;-63.798;2022-07-29T00:05:47;101069.78;;;24.73;55.21
66703;BME280;60933;46.398;-63.798;2022-07-29T00:08:13;101063.75;;;24.60;55.46
66703;BME280;60933;46.398;-63.798;2022-07-29T00:10:41;101067.25;;;24.49;55.55
66703;BME280;60933;46.398;-63.798;2022-07-29T00:13:07;101084.28;;;24.45;55.85
66703;BME280;60933;46.398;-63.798;2022-07-29T00:15:34;101083.31;;;24.34;55.55
66703;BME280;60933;46.398;-63.798;2022-07-29T00:18:00;101085.63;;;24.28;55.58
66703;BME280;60933;46.398;-63.798;2022-07-29T00:20:26;101081.66;;;24.22;56.27
66703;BME280;60933;46.398;-63.798;2022-07-29T00:22:52;101082.22;;;24.14;56.33
66703;BME280;60933;46.398;-63.798;2022-07-29T00:25:19;101071.19;;;24.09;56.33
66703;BME280;60933;46.398;-63.798;2022-07-29T00:27:45;101068.09;;;24.04;56.77
66703;BME280;60933;46.398;-63.798;2022-07-29T00:30:12;101055.47;;;23.96;57.26
66703;BME280;60933;46.398;-63.798;2022-07-29T00:32:38;101058.44;;;23.92;57.28
66703;BME280;60933;46.398;-63.798;2022-07-29T00:35:04;101065.25;;;23.83;57.85
66703;BME280;60933;46.398;-63.798;2022-07-29T00:37:49;101072.91;;;23.75;57.47
66703;BME280;60933;46.398;-63.798;2022-07-29T00:40:15;101072.53;;;23.68;58.00
66703;BME280;60933;46.398;-63.798;2022-07-29T00:42:45;101070.34;;;23.62;58.16
66703;BME280;60933;46.398;-63.798;2022-07-29T00:45:13;101076.09;;;23.55;58.09
66703;BME280;60933;46.398;-63.798;2022-07-29T00:47:40;101074.66;;;23.51;58.55
66703;BME280;60933;46.398;-63.798;2022-07-29T00:50:07;101075.00;;;23.47;58.86
66703;BME280;60933;46.398;-63.798;2022-07-29T00:52:36;101075.22;;;23.44;59.21
66703;BME280;60933;46.398;-63.798;2022-07-29T00:55:03;101074.59;;;23.40;59.45
66703;BME280;60933;46.398;-63.798;2022-07-29T00:57:30;101073.97;;;23.36;59.94
66703;BME280;60933;46.398;-63.798;2022-07-29T00:59:56;101071.56;;;23.33;60.86
66703;BME280;60933;46.398;-63.798;2022-07-29T01:02:22;101076.81;;;23.33;61.69
66703;BME280;60933;46.398;-63.798;2022-07-29T01:04:49;101071.69;;;23.32;61.86
66703;BME280;60933;46.398;-63.798;2022-07-29T01:07:15;101061.16;;;23.32;62.58
66703;BME280;60933;46.398;-63.798;2022-07-29T01:09:42;101060.41;;;23.30;61.91
66703;BME280;60933;46.398;-63.798;2022-07-29T01:12:09;101066.66;;;23.29;62.09
66703;BME280;60933;46.398;-63.798;2022-07-29T01:14:36;101064.13;;;23.27;61.94
66703;BME280;60933;46.398;-63.798;2022-07-29T01:17:13;101068.56;;;23.27;62.87
66703;BME280;60933;46.398;-63.798;2022-07-29T01:25:12;101069.84;;;23.21;62.98
66703;BME280;60933;46.398;-63.798;2022-07-29T01:28:01;101067.44;;;23.18;63.03
66703;BME280;60933;46.398;-63.798;2022-07-29T01:30:32;101076.47;;;23.14;61.85
66703;BME280;60933;46.398;-63.798;2022-07-29T01:33:04;101080.19;;;23.11;61.90
66703;BME280;60933;46.398;-63.798;2022-07-29T01:35:38;101076.94;;;23.07;62.13
66703;BME280;60933;46.398;-63.798;2022-07-29T01:38:16;101083.97;;;23.07;62.28
66703;BME280;60933;46.398;-63.798;2022-07-29T01:40:51;101085.28;;;23.01;62.21
66703;BME280;60933;46.398;-63.798;2022-07-29T01:43:31;101083.47;;;23.02;62.28
66703;BME280;60933;46.398;-63.798;2022-07-29T01:46:02;101076.66;;;22.99;63.00
66703;BME280;60933;46.398;-63.798;2022-07-29T01:48:41;101074.13;;;22.98;62.01
66703;BME280;60933;46.398;-63.798;2022-07-29T01:51:16;101065.72;;;22.92;62.55
66703;BME280;60933;46.398;-63.798;2022-07-29T01:54:01;101062.56;;;22.87;62.87
66703;BME280;60933;46.398;-63.798;2022-07-29T01:56:29;101060.06;;;22.86;62.13
66703;BME280;60933;46.398;-63.798;2022-07-29T01:59:00;101048.19;;;22.80;62.60
66703;BME280;60933;46.398;-63.798;2022-07-29T02:01:28;101051.63;;;22.81;62.76
66703;BME280;60933;46.398;-63.798;2022-07-29T02:03:57;101046.69;;;22.76;62.10
66703;BME280;60933;46.398;-63.798;2022-07-29T02:06:32;101056.41;;;22.75;61.95
66703;BME280;60933;46.398;-63.798;2022-07-29T02:08:59;101078.41;;;22.74;61.92
66703;BME280;60933;46.398;-63.798;2022-07-29T02:11:27;101075.88;;;22.73;62.25
66703;BME280;60933;46.398;-63.798;2022-07-29T02:13:56;101082.53;;;22.66;62.30
66703;BME280;60933;46.398;-63.798;2022-07-29T02:16:25;101068.13;;;22.58;63.11
66703;BME280;60933;46.398;-63.798;2022-07-29T02:18:54;101083.47;;;22.65;62.81
66703;BME280;60933;46.398;-63.798;2022-07-29T02:21:24;101084.53;;;22.62;63.09
66703;BME280;60933;46.398;-63.798;2022-07-29T02:23:52;101085.38;;;22.63;62.64
66703;BME280;60933;46.398;-63.798;2022-07-29T02:26:20;101085.59;;;22.59;64.38
66703;BME280;60933;46.398;-63.798;2022-07-29T02:28:51;101088.56;;;22.55;63.89
66703;BME280;60933;46.398;-63.798;2022-07-29T02:31:21;101079.81;;;22.54;64.61
66703;BME280;60933;46.398;-63.798;2022-07-29T02:33:49;101074.03;;;22.49;64.06
66703;BME280;60933;46.398;-63.798;2022-07-29T02:36:16;101070.47;;;22.50;64.09
66703;BME280;60933;46.398;-63.798;2022-07-29T02:38:43;101083.63;;;22.50;64.07
66703;BME280;60933;46.398;-63.798;2022-07-29T02:41:43;101083.81;;;22.47;64.29
66703;BME280;60933;46.398;-63.798;2022-07-29T02:44:12;101090.88;;;22.47;63.52
66703;BME280;60933;46.398;-63.798;2022-07-29T02:46:50;101080.47;;;22.45;64.05
66703;BME280;60933;46.398;-63.798;2022-07-29T02:52:00;101098.34;;;22.40;63.79
66703;BME280;60933;46.398;-63.798;2022-07-29T02:57:33;101096.00;;;22.35;63.78
66703;BME280;60933;46.398;-63.798;2022-07-29T03:00:05;101090.09;;;22.32;63.65
66703;BME280;60933;46.398;-63.798;2022-07-29T03:02:40;101092.09;;;22.28;63.24
66703;BME280;60933;46.398;-63.798;2022-07-29T03:05:10;101094.84;;;22.26;62.78
66703;BME280;60933;46.398;-63.798;2022-07-29T03:07:40;101097.47;;;22.26;63.00
66703;BME280;60933;46.398;-63.798;2022-07-29T03:10:07;101086.22;;;22.24;62.00
66703;BME280;60933;46.398;-63.798;2022-07-29T03:12:35;101095.06;;;22.23;62.64
66703;BME280;60933;46.398;-63.798;2022-07-29T03:15:02;101091.06;;;22.18;61.76
66703;BME280;60933;46.398;-63.798;2022-07-29T03:17:29;101093.06;;;22.14;62.08
66703;BME280;60933;46.398;-63.798;2022-07-29T03:19:57;101086.03;;;22.14;61.99
66703;BME280;60933;46.398;-63.798;2022-07-29T03:22:26;101080.97;;;22.11;61.34
66703;BME280;60933;46.398;-63.798;2022-07-29T03:24:52;101084.75;;;22.07;61.17
66703;BME280;60933;46.398;-63.798;2022-07-29T03:27:18;101080.56;;;22.05;61.13
66703;BME280;60933;46.398;-63.798;2022-07-29T03:29:45;101080.75;;;22.02;61.07
66703;BME280;60933;46.398;-63.798;2022-07-29T03:32:11;101080.13;;;21.98;61.24
66703;BME280;60933;46.398;-63.798;2022-07-29T03:34:37;101080.44;;;21.93;61.43
66703;BME280;60933;46.398;-63.798;2022-07-29T03:37:05;101086.72;;;21.91;62.05
66703;BME280;60933;46.398;-63.798;2022-07-29T03:39:35;101085.34;;;21.85;62.35
66703;BME280;60933;46.398;-63.798;2022-07-29T03:42:03;101087.28;;;21.83;62.28
66703;BME280;60933;46.398;-63.798;2022-07-29T03:44:31;101087.47;;;21.80;62.99
66703;BME280;60933;46.398;-63.798;2022-07-29T03:46:59;101083.38;;;21.76;63.34
66703;BME280;60933;46.398;-63.798;2022-07-29T03:49:27;101082.00;;;21.70;64.00
66703;BME280;60933;46.398;-63.798;2022-07-29T03:51:55;101084.69;;;21.69;63.60
66703;BME280;60933;46.398;-63.798;2022-07-29T03:54:22;101088.47;;;21.64;63.02
66703;BME280;60933;46.398;-63.798;2022-07-29T03:56:49;101094.47;;;21.66;62.91
66703;BME280;60933;46.398;-63.798;2022-07-29T03:59:16;101075.53;;;21.61;63.95
66703;BME280;60933;46.398;-63.798;2022-07-29T04:01:45;101081.94;;;21.57;65.20
66703;BME280;60933;46.398;-63.798;2022-07-29T04:04:11;101087.47;;;21.53;64.95
66703;BME280;60933;46.398;-63.798;2022-07-29T04:06:42;101091.16;;;21.50;65.86
66703;BME280;60933;46.398;-63.798;2022-07-29T04:09:09;101088.81;;;21.45;65.59
66703;BME280;60933;46.398;-63.798;2022-07-29T04:11:38;101079.56;;;21.40;65.37
66703;BME280;60933;46.398;-63.798;2022-07-29T04:14:04;101069.34;;;21.35;65.06
66703;BME280;60933;46.398;-63.798;2022-07-29T04:16:31;101076.41;;;21.34;65.46
66703;BME280;60933;46.398;-63.798;2022-07-29T04:18:57;101060.94;;;21.30;65.73
66703;BME280;60933;46.398;-63.798;2022-07-29T04:21:24;101055.22;;;21.23;66.08
66703;BME280;60933;46.398;-63.798;2022-07-29T04:23:50;101047.56;;;21.20;66.25
66703;BME280;60933;46.398;-63.798;2022-07-29T04:26:17;101030.63;;;21.11;66.68
66703;BME280;60933;46.398;-63.798;2022-07-29T04:28:43;101032.22;;;21.14;66.38
66703;BME280;60933;46.398;-63.798;2022-07-29T04:31:10;101014.22;;;21.08;66.80
66703;BME280;60933;46.398;-63.798;2022-07-29T04:33:37;101011.59;;;21.08;66.72
66703;BME280;60933;46.398;-63.798;2022-07-29T04:36:03;101004.88;;;21.03;67.05
66703;BME280;60933;46.398;-63.798;2022-07-29T04:38:29;100998.88;;;21.01;67.17
66703;BME280;60933;46.398;-63.798;2022-07-29T04:40:55;100995.63;;;20.98;67.59
66703;BME280;60933;46.398;-63.798;2022-07-29T04:43:21;100998.34;;;20.96;67.18
66703;BME280;60933;46.398;-63.798;2022-07-29T04:45:47;101003.06;;;20.91;67.85
66703;BME280;60933;46.398;-63.798;2022-07-29T04:48:13;101004.84;;;20.91;68.26
66703;BME280;60933;46.398;-63.798;2022-07-29T04:50:40;101000.53;;;20.90;67.42
66703;BME280;60933;46.398;-63.798;2022-07-29T04:53:07;101007.75;;;20.86;68.12
66703;BME280;60933;46.398;-63.798;2022-07-29T04:55:33;101023.50;;;20.86;67.71
66703;BME280;60933;46.398;-63.798;2022-07-29T04:57:59;101027.16;;;20.83;68.37
66703;BME280;60933;46.398;-63.798;2022-07-29T05:00:25;101024.81;;;20.79;68.41
66703;BME280;60933;46.398;-63.798;2022-07-29T05:02:51;101041.72;;;20.75;68.70
66703;BME280;60933;46.398;-63.798;2022-07-29T05:05:17;101028.97;;;20.68;68.76
66703;BME280;60933;46.398;-63.798;2022-07-29T05:07:44;101028.97;;;20.68;68.42
66703;BME280;60933;46.398;-63.798;2022-07-29T05:10:10;101023.72;;;20.68;69.52
66703;BME280;60933;46.398;-63.798;2022-07-29T05:12:37;101024.66;;;20.67;69.63
66703;BME280;60933;46.398;-63.798;2022-07-29T05:15:03;101029.13;;;20.65;67.43
66703;BME280;60933;46.398;-63.798;2022-07-29T05:17:29;101023.06;;;20.65;68.41
66703;BME280;60933;46.398;-63.798;2022-07-29T05:19:55;101030.06;;;20.64;70.29
66703;BME280;60933;46.398;-63.798;2022-07-29T05:22:21;101037.13;;;20.64;70.79
66703;BME280;60933;46.398;-63.798;2022-07-29T05:24:47;101038.16;;;20.61;70.96
66703;BME280;60933;46.398;-63.798;2022-07-29T05:27:14;101032.22;;;20.58;70.40
66703;BME280;60933;46.398;-63.798;2022-07-29T05:29:40;101032.34;;;20.56;72.06
66703;BME280;60933;46.398;-63.798;2022-07-29T05:32:06;101035.72;;;20.58;70.05
66703;BME280;60933;46.398;-63.798;2022-07-29T05:34:32;101026.34;;;20.54;72.20
66703;BME280;60933;46.398;-63.798;2022-07-29T05:36:58;101032.34;;;20.56;67.83
66703;BME280;60933;46.398;-63.798;2022-07-29T05:39:24;101018.69;;;20.51;66.45
66703;BME280;60933;46.398;-63.798;2022-07-29T05:41:50;101040.94;;;20.58;68.26
66703;BME280;60933;46.398;-63.798;2022-07-29T05:44:16;101039.38;;;20.55;68.73
66703;BME280;60933;46.398;-63.798;2022-07-29T05:46:42;101027.38;;;20.51;66.62
66703;BME280;60933;46.398;-63.798;2022-07-29T05:49:08;101022.88;;;20.53;66.78
66703;BME280;60933;46.398;-63.798;2022-07-29T05:51:35;100998.53;;;20.51;66.11
66703;BME280;60933;46.398;-63.798;2022-07-29T05:54:01;100997.88;;;20.48;66.30
66703;BME280;60933;46.398;-63.798;2022-07-29T05:56:28;101006.69;;;20.47;65.38
66703;BME280;60933;46.398;-63.798;2022-07-29T05:58:54;101014.47;;;20.48;64.22
66703;BME280;60933;46.398;-63.798;2022-07-29T06:01:20;101012.97;;;20.44;65.25
66703;BME280;60933;46.398;-63.798;2022-07-29T06:03:46;101020.94;;;20.43;65.45
66703;BME280;60933;46.398;-63.798;2022-07-29T06:06:12;101012.31;;;20.40;65.52
66703;BME280;60933;46.398;-63.798;2022-07-29T06:08:38;101007.06;;;20.40;65.59
66703;BME280;60933;46.398;-63.798;2022-07-29T06:11:06;101006.25;;;20.40;64.22
66703;BME280;60933;46.398;-63.798;2022-07-29T06:13:33;100983.03;;;20.34;64.31
66703;BME280;60933;46.398;-63.798;2022-07-29T06:16:00;100982.94;;;20.35;65.27
66703;BME280;60933;46.398;-63.798;2022-07-29T06:18:26;100971.78;;;20.32;64.59
66703;BME280;60933;46.398;-63.798;2022-07-29T06:20:53;100968.31;;;20.31;64.81
66703;BME280;60933;46.398;-63.798;2022-07-29T06:23:20;100962.34;;;20.29;66.96
66703;BME280;60933;46.398;-63.798;2022-07-29T06:25:46;100949.59;;;20.23;64.84
66703;BME280;60933;46.398;-63.798;2022-07-29T06:28:12;100960.19;;;20.21;66.51
66703;BME280;60933;46.398;-63.798;2022-07-29T06:30:39;100954.19;;;20.19;67.16
66703;BME280;60933;46.398;-63.798;2022-07-29T06:33:05;100956.09;;;20.17;66.85
66703;BME280;60933;46.398;-63.798;2022-07-29T06:35:34;100962.38;;;20.15;67.43
66703;BME280;60933;46.398;-63.798;2022-07-29T06:38:02;100960.84;;;20.11;67.08
66703;BME280;60933;46.398;-63.798;2022-07-29T06:40:28;100950.47;;;20.09;67.57
66703;BME280;60933;46.398;-63.798;2022-07-29T06:43:12;100953.38;;;20.04;68.28
66703;BME280;60933;46.398;-63.798;2022-07-29T06:45:38;100946.63;;;20.00;66.10
66703;BME280;60933;46.398;-63.798;2022-07-29T06:48:06;100948.31;;;20.01;65.30
66703;BME280;60933;46.398;-63.798;2022-07-29T06:50:33;100951.03;;;20.00;64.29
66703;BME280;60933;46.398;-63.798;2022-07-29T06:52:59;100947.88;;;19.95;65.44
66703;BME280;60933;46.398;-63.798;2022-07-29T06:55:25;100950.22;;;19.99;66.49
66703;BME280;60933;46.398;-63.798;2022-07-29T06:57:51;100945.97;;;19.97;67.42
66703;BME280;60933;46.398;-63.798;2022-07-29T07:00:17;100933.53;;;19.86;67.65
66703;BME280;60933;46.398;-63.798;2022-07-29T07:02:43;100954.31;;;19.89;67.10
66703;BME280;60933;46.398;-63.798;2022-07-29T07:05:09;100964.13;;;19.85;67.51
66703;BME280;60933;46.398;-63.798;2022-07-29T07:07:35;100959.91;;;19.83;66.65
66703;BME280;60933;46.398;-63.798;2022-07-29T07:10:02;100954.84;;;19.80;65.80
66703;BME280;60933;46.398;-63.798;2022-07-29T07:12:28;100954.00;;;19.79;67.21
66703;BME280;60933;46.398;-63.798;2022-07-29T07:14:54;100955.97;;;19.75;67.17
66703;BME280;60933;46.398;-63.798;2022-07-29T07:17:20;100946.78;;;19.68;67.99
66703;BME280;60933;46.398;-63.798;2022-07-29T07:19:46;100950.34;;;19.67;68.20
66703;BME280;60933;46.398;-63.798;2022-07-29T07:22:12;100946.97;;;19.65;68.43
66703;BME280;60933;46.398;-63.798;2022-07-29T07:24:38;100941.91;;;19.62;68.91
66703;BME280;60933;46.398;-63.798;2022-07-29T07:27:04;100941.19;;;19.60;68.65
66703;BME280;60933;46.398;-63.798;2022-07-29T07:29:30;100938.63;;;19.58;69.02
66703;BME280;60933;46.398;-63.798;2022-07-29T07:31:57;100933.69;;;19.54;69.35
66703;BME280;60933;46.398;-63.798;2022-07-29T07:34:23;100923.22;;;19.54;68.67
66703;BME280;60933;46.398;-63.798;2022-07-29T07:36:49;100922.47;;;19.52;68.91
66703;BME280;60933;46.398;-63.798;2022-07-29T07:39:15;100922.53;;;19.50;68.60
66703;BME280;60933;46.398;-63.798;2022-07-29T07:41:41;100924.41;;;19.48;68.96
66703;BME280;60933;46.398;-63.798;2022-07-29T07:44:07;100916.56;;;19.48;69.02
66703;BME280;60933;46.398;-63.798;2022-07-29T07:46:33;100907.84;;;19.48;68.96
66703;BME280;60933;46.398;-63.798;2022-07-29T07:48:59;100901.03;;;19.45;68.61
66703;BME280;60933;46.398;-63.798;2022-07-29T07:51:25;100897.59;;;19.44;68.82
66703;BME280;60933;46.398;-63.798;2022-07-29T07:53:52;100895.03;;;19.43;68.31
66703;BME280;60933;46.398;-63.798;2022-07-29T07:56:18;100880.38;;;19.40;68.34
66703;BME280;60933;46.398;-63.798;2022-07-29T07:58:44;100887.50;;;19.38;67.95
66703;BME280;60933;46.398;-63.798;2022-07-29T08:01:10;100894.47;;;19.38;68.78
66703;BME280;60933;46.398;-63.798;2022-07-29T08:03:37;100888.41;;;19.37;69.40
66703;BME280;60933;46.398;-63.798;2022-07-29T08:06:04;100891.84;;;19.38;69.45
66703;BME280;60933;46.398;-63.798;2022-07-29T08:08:31;100904.84;;;19.39;68.16
66703;BME280;60933;46.398;-63.798;2022-07-29T08:10:57;100904.69;;;19.42;67.67
66703;BME280;60933;46.398;-63.798;2022-07-29T08:13:26;100888.97;;;19.42;67.91
66703;BME280;60933;46.398;-63.798;2022-07-29T08:15:55;100893.06;;;19.46;70.01
66703;BME280;60933;46.398;-63.798;2022-07-29T08:18:26;100880.00;;;19.46;70.03
66703;BME280;60933;46.398;-63.798;2022-07-29T08:20:53;100867.94;;;19.44;68.01
66703;BME280;60933;46.398;-63.798;2022-07-29T08:23:19;100860.94;;;19.44;68.44
66703;BME280;60933;46.398;-63.798;2022-07-29T08:25:45;100871.47;;;19.43;68.05
66703;BME280;60933;46.398;-63.798;2022-07-29T08:28:11;100868.97;;;19.41;67.98
66703;BME280;60933;46.398;-63.798;2022-07-29T08:30:37;100883.91;;;19.39;68.03
66703;BME280;60933;46.398;-63.798;2022-07-29T08:33:03;100876.34;;;19.35;68.89
66703;BME280;60933;46.398;-63.798;2022-07-29T08:35:29;100868.84;;;19.28;68.92
66703;BME280;60933;46.398;-63.798;2022-07-29T08:37:56;100883.25;;;19.36;68.74
66703;BME280;60933;46.398;-63.798;2022-07-29T08:40:23;100892.91;;;19.35;68.81
66703;BME280;60933;46.398;-63.798;2022-07-29T08:42:50;100896.44;;;19.34;68.69
66703;BME280;60933;46.398;-63.798;2022-07-29T08:45:16;100906.16;;;19.32;68.64
66703;BME280;60933;46.398;-63.798;2022-07-29T08:47:44;100891.69;;;19.26;67.98
66703;BME280;60933;46.398;-63.798;2022-07-29T08:50:11;100891.31;;;19.33;68.43
66703;BME280;60933;46.398;-63.798;2022-07-29T08:52:39;100882.53;;;19.34;68.46
66703;BME280;60933;46.398;-63.798;2022-07-29T08:55:07;100879.91;;;19.34;69.11
66703;BME280;60933;46.398;-63.798;2022-07-29T08:57:34;100885.13;;;19.34;69.12
66703;BME280;60933;46.398;-63.798;2022-07-29T09:00:02;100879.91;;;19.34;68.95
66703;BME280;60933;46.398;-63.798;2022-07-29T09:02:36;100883.63;;;19.29;69.71
66703;BME280;60933;46.398;-63.798;2022-07-29T09:05:05;100895.69;;;19.32;69.16
66703;BME280;60933;46.398;-63.798;2022-07-29T09:07:31;100887.94;;;19.30;68.29
66703;BME280;60933;46.398;-63.798;2022-07-29T09:09:59;100883.19;;;19.37;69.10
66703;BME280;60933;46.398;-63.798;2022-07-29T09:12:25;100876.16;;;19.38;69.38
66703;BME280;60933;46.398;-63.798;2022-07-29T09:14:51;100896.16;;;19.39;69.89
66703;BME280;60933;46.398;-63.798;2022-07-29T09:17:17;100895.25;;;19.40;69.88
66703;BME280;60933;46.398;-63.798;2022-07-29T09:19:45;100889.25;;;19.38;70.05
66703;BME280;60933;46.398;-63.798;2022-07-29T09:22:11;100870.00;;;19.39;70.31
66703;BME280;60933;46.398;-63.798;2022-07-29T09:24:42;100883.75;;;19.42;70.45
66703;BME280;60933;46.398;-63.798;2022-07-29T09:27:23;100903.84;;;19.42;70.36
66703;BME280;60933;46.398;-63.798;2022-07-29T09:32:23;100906.38;;;19.43;70.48
66703;BME280;60933;46.398;-63.798;2022-07-29T09:34:49;100918.53;;;19.44;70.38
66703;BME280;60933;46.398;-63.798;2022-07-29T09:37:30;100941.88;;;19.48;71.08
66703;BME280;60933;46.398;-63.798;2022-07-29T09:39:56;100960.22;;;19.48;67.83
66703;BME280;60933;46.398;-63.798;2022-07-29T09:42:29;100969.47;;;19.53;66.80
66703;BME280;60933;46.398;-63.798;2022-07-29T09:44:55;100963.22;;;19.56;68.06
66703;BME280;60933;46.398;-63.798;2022-07-29T09:47:22;100948.38;;;19.56;70.10
66703;BME280;60933;46.398;-63.798;2022-07-29T09:49:56;100949.19;;;19.57;69.67
66703;BME280;60933;46.398;-63.798;2022-07-29T09:52:24;100938.72;;;19.57;68.87
66703;BME280;60933;46.398;-63.798;2022-07-29T09:54:50;100945.47;;;19.61;67.95
66703;BME280;60933;46.398;-63.798;2022-07-29T09:57:27;100946.31;;;19.61;66.36
66703;BME280;60933;46.398;-63.798;2022-07-29T10:00:03;100952.31;;;19.64;68.88
66703;BME280;60933;46.398;-63.798;2022-07-29T10:02:33;100954.00;;;19.65;70.14
66703;BME280;60933;46.398;-63.798;2022-07-29T10:05:01;100945.28;;;19.64;69.24
66703;BME280;60933;46.398;-63.798;2022-07-29T10:07:46;100934.81;;;19.64;71.33
66703;BME280;60933;46.398;-63.798;2022-07-29T10:10:25;100925.25;;;19.63;71.02
66703;BME280;60933;46.398;-63.798;2022-07-29T10:12:54;100917.59;;;19.60;73.68
66703;BME280;60933;46.398;-63.798;2022-07-29T10:15:25;100917.78;;;19.57;74.46
66703;BME280;60933;46.398;-63.798;2022-07-29T10:17:53;100920.41;;;19.57;73.03
66703;BME280;60933;46.398;-63.798;2022-07-29T10:20:21;100902.28;;;19.54;73.89
66703;BME280;60933;46.398;-63.798;2022-07-29T10:22:48;100919.63;;;19.55;72.18
66703;BME280;60933;46.398;-63.798;2022-07-29T10:25:15;100974.72;;;19.53;70.75
66703;BME280;60933;46.398;-63.798;2022-07-29T10:27:43;100994.84;;;19.53;69.08
66703;BME280;60933;46.398;-63.798;2022-07-29T10:30:10;101025.03;;;19.58;72.44
66703;BME280;60933;46.398;-63.798;2022-07-29T10:36:15;101003.41;;;19.55;70.76
66703;BME280;60933;46.398;-63.798;2022-07-29T10:41:02;100982.75;;;19.50;69.49
66703;BME280;60933;46.398;-63.798;2022-07-29T10:43:51;100961.25;;;19.45;70.61
66703;BME280;60933;46.398;-63.798;2022-07-29T10:46:18;100959.47;;;19.45;70.62
66703;BME280;60933;46.398;-63.798;2022-07-29T10:52:02;100952.63;;;19.43;74.32
66703;BME280;60933;46.398;-63.798;2022-07-29T10:59:44;100971.03;;;19.41;72.51
66703;BME280;60933;46.398;-63.798;2022-07-29T11:07:25;100942.47;;;19.53;74.75
66703;BME280;60933;46.398;-63.798;2022-07-29T11:15:10;100938.72;;;19.57;74.52
66703;BME280;60933;46.398;-63.798;2022-07-29T11:20:38;100975.13;;;19.61;74.68
66703;BME280;60933;46.398;-63.798;2022-07-29T11:26:12;100969.13;;;19.59;75.42
66703;BME280;60933;46.398;-63.798;2022-07-29T11:28:34;100969.97;;;19.60;75.29
66703;BME280;60933;46.398;-63.798;2022-07-29T11:31:02;100984.44;;;19.51;72.22
66703;BME280;60933;46.398;-63.798;2022-07-29T11:33:31;100967.53;;;19.57;74.85
66703;BME280;60933;46.398;-63.798;2022-07-29T11:36:11;100948.38;;;19.56;77.37
66703;BME280;60933;46.398;-63.798;2022-07-29T11:38:38;100945.66;;;19.58;75.87
66703;BME280;60933;46.398;-63.798;2022-07-29T11:41:24;100949.75;;;19.62;75.85
66703;BME280;60933;46.398;-63.798;2022-07-29T11:43:55;100965.84;;;19.70;73.89
66703;BME280;60933;46.398;-63.798;2022-07-29T11:46:48;100981.28;;;19.75;75.42
66703;BME280;60933;46.398;-63.798;2022-07-29T11:49:21;100963.91;;;19.74;74.00
66703;BME280;60933;46.398;-63.798;2022-07-29T11:52:10;100961.38;;;19.72;72.70
66703;BME280;60933;46.398;-63.798;2022-07-29T11:54:37;100959.41;;;19.76;71.08
66703;BME280;60933;46.398;-63.798;2022-07-29T11:57:06;100948.28;;;19.72;68.59
66703;BME280;60933;46.398;-63.798;2022-07-29T11:59:42;100955.41;;;19.85;69.16
66703;BME280;60933;46.398;-63.798;2022-07-29T12:02:08;100954.69;;;19.97;68.98
66703;BME280;60933;46.398;-63.798;2022-07-29T12:04:52;100964.63;;;19.92;71.17
66703;BME280;60933;46.398;-63.798;2022-07-29T12:07:19;100942.81;;;19.91;69.99
66703;BME280;60933;46.398;-63.798;2022-07-29T12:09:52;100952.63;;;19.88;68.82
66703;BME280;60933;46.398;-63.798;2022-07-29T12:12:19;100929.41;;;19.82;72.94
66703;BME280;60933;46.398;-63.798;2022-07-29T12:14:46;100916.69;;;19.75;72.48
66703;BME280;60933;46.398;-63.798;2022-07-29T12:17:38;100915.16;;;19.71;74.39
66703;BME280;60933;46.398;-63.798;2022-07-29T12:20:05;100892.63;;;19.69;73.72
66703;BME280;60933;46.398;-63.798;2022-07-29T12:22:39;100885.53;;;19.71;73.60
66703;BME280;60933;46.398;-63.798;2022-07-29T12:25:11;100893.28;;;19.72;73.83
66703;BME280;60933;46.398;-63.798;2022-07-29T12:27:40;100914.63;;;19.66;74.25
66703;BME280;60933;46.398;-63.798;2022-07-29T12:30:08;100925.19;;;19.65;74.98
66703;BME280;60933;46.398;-63.798;2022-07-29T12:32:36;100925.53;;;19.58;75.62
66703;BME280;60933;46.398;-63.798;2022-07-29T12:35:05;100933.69;;;19.54;75.95
66703;BME280;60933;46.398;-63.798;2022-07-29T12:37:33;100940.41;;;19.43;73.56
66703;BME280;60933;46.398;-63.798;2022-07-29T12:40:02;100920.91;;;19.33;73.91
66703;BME280;60933;46.398;-63.798;2022-07-29T12:42:28;100921.19;;;19.28;75.41
66703;BME280;60933;46.398;-63.798;2022-07-29T12:44:54;100940.91;;;19.20;76.90
66703;BME280;60933;46.398;-63.798;2022-07-29T12:47:22;100955.09;;;19.16;74.60
66703;BME280;60933;46.398;-63.798;2022-07-29T12:49:49;100955.28;;;19.12;75.27
66703;BME280;60933;46.398;-63.798;2022-07-29T12:52:33;100946.84;;;19.07;75.74
66703;BME280;60933;46.398;-63.798;2022-07-29T12:54:59;100931.31;;;19.04;75.73
66703;BME280;60933;46.398;-63.798;2022-07-29T12:57:27;100933.38;;;18.99;75.81
66703;BME280;60933;46.398;-63.798;2022-07-29T13:00:00;100929.16;;;18.96;76.64
66703;BME280;60933;46.398;-63.798;2022-07-29T13:02:28;100927.63;;;18.92;75.05
66703;BME280;60933;46.398;-63.798;2022-07-29T13:04:59;100927.75;;;18.89;78.13
66703;BME280;60933;46.398;-63.798;2022-07-29T13:07:27;100923.66;;;18.85;78.01
66703;BME280;60933;46.398;-63.798;2022-07-29T13:10:16;100902.88;;;18.82;78.69
66703;BME280;60933;46.398;-63.798;2022-07-29T13:13:10;100898.63;;;18.81;79.49
66703;BME280;60933;46.398;-63.798;2022-07-29T13:15:43;100893.56;;;18.78;78.79
66703;BME280;60933;46.398;-63.798;2022-07-29T13:18:32;100894.56;;;18.75;79.12
66703;BME280;60933;46.398;-63.798;2022-07-29T13:21:11;100899.13;;;18.72;79.12
66703;BME280;60933;46.398;-63.798;2022-07-29T13:23:37;100898.28;;;18.71;78.28